createdAt,value
2022-11-16T00:02:13.152Z,97292.97
2022-11-16T00:04:40.111Z,97303.72
2022-11-16T00:07:06.688Z,97291.75
2022-11-16T00:09:33.474Z,97302.25
2022-11-16T00:12:02.257Z,97302.88
2022-11-16T00:14:31.625Z,97303.91
2022-11-16T00:16:58.669Z,97298.34
2022-11-16T00:19:26.387Z,97288.06
2022-11-16T00:21:53.368Z,97289.72
2022-11-16T00:24:21.852Z,97281.03
2022-11-16T00:26:48.994Z,97280.84
2022-11-16T00:29:18.746Z,97283.31
2022-11-16T00:31:46.032Z,97274.47
2022-11-16T00:34:12.798Z,97281.88
2022-11-16T00:36:39.448Z,97290.31
2022-11-16T00:39:06.189Z,97280.84
2022-11-16T00:41:32.957Z,97279.22
2022-11-16T00:43:59.354Z,97287.84
2022-11-16T00:46:25.764Z,97281.47
2022-11-16T00:48:52.269Z,97280.44
2022-11-16T00:51:18.620Z,97291.16
2022-11-16T00:53:45.063Z,97289.69
2022-11-16T00:56:11.631Z,97296.50
2022-11-16T00:58:42.975Z,97292.19
2022-11-16T01:01:11.623Z,97299.38
2022-11-16T01:03:38.391Z,97298.34
2022-11-16T01:06:11.780Z,97295.47
2022-11-16T01:08:39.834Z,97299.78
2022-11-16T01:11:26.088Z,97303.91
2022-11-16T01:13:53.149Z,97299.59
2022-11-16T01:16:22.697Z,97301.03
2022-11-16T01:18:51.002Z,97316.47
2022-11-16T01:21:18.320Z,97309.69
2022-11-16T01:23:45.133Z,97306.78
2022-11-16T01:26:12.014Z,97302.38
2022-11-16T01:28:40.256Z,97314.56
2022-11-16T01:31:09.183Z,97309.09
2022-11-16T01:33:37.092Z,97320.38
2022-11-16T01:36:14.164Z,97323.47
2022-11-16T01:38:42.532Z,97327.00
2022-11-16T01:41:14.163Z,97325.91
2022-11-16T01:44:01.353Z,97324.44
2022-11-16T01:46:37.176Z,97328.13
2022-11-16T01:49:09.368Z,97326.66
2022-11-16T01:51:37.880Z,97333.00
2022-11-16T01:54:07.868Z,97329.69
2022-11-16T01:56:39.156Z,97328.50
2022-11-16T01:59:12.304Z,97315.06
2022-11-16T02:01:39.076Z,97300.88
2022-11-16T02:04:06.060Z,97299.28
2022-11-16T02:06:58.228Z,97297.22
2022-11-16T02:09:55.364Z,97303.31
2022-11-16T02:12:47.520Z,97299.56
2022-11-16T02:15:31.856Z,97307.44
2022-11-16T02:18:35.579Z,97313.09
2022-11-16T02:21:25.483Z,97306.31
2022-11-16T02:23:57.895Z,97299.38
2022-11-16T02:26:33.463Z,97298.09
2022-11-16T02:29:42.896Z,97312.19
2022-11-16T02:32:53.544Z,97313.69
2022-11-16T02:35:27.253Z,97323.63
2022-11-16T02:38:27.561Z,97314.63
2022-11-16T02:41:01.534Z,97312.88
2022-11-16T02:43:35.991Z,97318.53
2022-11-16T02:46:08.444Z,97310.22
2022-11-16T02:48:38.992Z,97313.25
2022-11-16T02:51:08.102Z,97320.34
2022-11-16T02:53:53.208Z,97326.50
2022-11-16T02:56:20.157Z,97334.81
2022-11-16T02:58:47.879Z,97323.88
2022-11-16T03:01:25.168Z,97334.56
2022-11-16T03:04:03.146Z,97335.22
2022-11-16T03:06:33.248Z,97326.41
2022-11-16T03:09:04.503Z,97337.94
2022-11-16T03:11:53.638Z,97341.06
2022-11-16T03:14:26.787Z,97346.84
2022-11-16T03:16:57.528Z,97346.22
2022-11-16T03:19:39.011Z,97353.06
2022-11-16T03:22:31.159Z,97352.44
2022-11-16T03:24:57.786Z,97363.22
2022-11-16T03:27:37.562Z,97358.44
2022-11-16T03:30:12.721Z,97352.09
2022-11-16T03:32:51.506Z,97356.81
2022-11-16T03:35:27.219Z,97361.13
2022-11-16T03:37:57.878Z,97357.88
2022-11-16T03:40:29.581Z,97351.66
2022-11-16T03:42:58.795Z,97357.03
2022-11-16T03:45:25.581Z,97350.66
2022-11-16T03:47:53.445Z,97351.03
2022-11-16T03:50:20.643Z,97352.69
2022-11-16T03:52:47.151Z,97351.91
2022-11-16T03:55:14.343Z,97344.50
2022-11-16T03:57:43.015Z,97354.81
2022-11-16T04:00:10.107Z,97356.47
2022-11-16T04:02:43.731Z,97355.84
2022-11-16T04:05:35.169Z,97358.13
2022-11-16T04:08:20.349Z,97361.41
2022-11-16T04:11:05.290Z,97345.75
2022-11-16T04:13:53.842Z,97359.34
2022-11-16T04:16:39.256Z,97361.44
2022-11-16T04:19:27.277Z,97364.94
2022-11-16T04:22:16.892Z,97360.19
2022-11-16T04:24:48.853Z,97366.59
2022-11-16T04:27:34.323Z,97369.47
2022-11-16T04:30:04.537Z,97367.22
2022-11-16T04:32:52.461Z,97371.34
2022-11-16T04:35:48.121Z,97358.53
2022-11-16T04:38:14.904Z,97351.09
2022-11-16T04:40:41.267Z,97350.88
2022-11-16T04:43:10.495Z,97357.06
2022-11-16T04:45:58.603Z,97350.47
2022-11-16T04:48:32.584Z,97348.19
2022-11-16T04:50:59.304Z,97347.56
2022-11-16T04:53:27.857Z,97346.97
2022-11-16T04:56:02.327Z,97347.75
2022-11-16T04:58:31.070Z,97357.63
2022-11-16T05:00:59.943Z,97351.59
2022-11-16T05:03:26.907Z,97344.41
2022-11-16T05:05:53.327Z,97334.09
2022-11-16T05:08:20.111Z,97346.91
2022-11-16T05:10:50.950Z,97335.13
2022-11-16T05:13:17.586Z,97337.03
2022-11-16T05:15:47.230Z,97346.72
2022-11-16T05:18:13.682Z,97347.13
2022-11-16T05:20:58.821Z,97341.97
2022-11-16T05:23:44.636Z,97360.19
2022-11-16T05:26:13.811Z,97347.38
2022-11-16T05:28:40.216Z,97356.59
2022-11-16T05:31:09.139Z,97352.69
2022-11-16T05:33:36.391Z,97352.50
2022-11-16T05:36:04.201Z,97348.97
2022-11-16T05:38:31.091Z,97359.28
2022-11-16T05:40:59.610Z,97362.22
2022-11-16T05:43:26.141Z,97364.25
2022-11-16T05:46:00.916Z,97364.66
2022-11-16T05:48:27.384Z,97376.41
2022-11-16T05:51:01.066Z,97376.78
2022-11-16T05:53:32.017Z,97373.13
2022-11-16T05:55:58.600Z,97374.78
2022-11-16T05:58:25.023Z,97367.34
2022-11-16T06:00:51.518Z,97376.66
2022-11-16T06:03:19.216Z,97376.66
2022-11-16T06:05:45.660Z,97386.78
2022-11-16T06:08:14.339Z,97381.41
2022-11-16T06:10:40.996Z,97386.16
2022-11-16T06:13:08.053Z,97391.06
2022-11-16T06:15:37.354Z,97384.47
2022-11-16T06:18:04.415Z,97394.41
2022-11-16T06:20:30.875Z,97401.00
2022-11-16T06:22:57.392Z,97395.19
2022-11-16T06:25:24.499Z,97393.59
2022-11-16T06:27:50.818Z,97389.47
2022-11-16T06:30:18.582Z,97394.44
2022-11-16T06:32:44.985Z,97395.25
2022-11-16T06:35:11.509Z,97400.00
2022-11-16T06:37:39.342Z,97407.03
2022-11-16T06:40:07.573Z,97411.34
2022-11-16T06:42:37.078Z,97408.47
2022-11-16T06:45:03.772Z,97402.69
2022-11-16T06:47:35.971Z,97411.81
2022-11-16T06:50:02.805Z,97422.94
2022-11-16T06:52:29.752Z,97426.03
2022-11-16T06:54:56.199Z,97418.38
2022-11-16T06:57:23.246Z,97422.53
2022-11-16T06:59:50.937Z,97423.78
2022-11-16T07:02:20.383Z,97429.34
2022-11-16T07:04:48.831Z,97434.50
2022-11-16T07:07:15.992Z,97430.78
2022-11-16T07:09:44.436Z,97433.66
2022-11-16T07:12:11.275Z,97434.47
2022-11-16T07:14:39.949Z,97432.00
2022-11-16T07:17:09.801Z,97448.91
2022-11-16T07:19:36.922Z,97448.53
2022-11-16T07:22:04.228Z,97449.09
2022-11-16T07:24:31.229Z,97450.56
2022-11-16T07:26:57.882Z,97459.22
2022-11-16T07:29:26.624Z,97459.66
2022-11-16T07:32:10.744Z,97457.56
2022-11-16T07:34:58.946Z,97466.88
2022-11-16T07:37:25.787Z,97463.78
2022-11-16T07:39:53.741Z,97463.78
2022-11-16T07:42:47.201Z,97460.50
2022-11-16T07:45:31.511Z,97458.00
2022-11-16T07:48:04.956Z,97460.72
2022-11-16T07:50:50.502Z,97465.84
2022-11-16T07:53:18.617Z,97462.97
2022-11-16T07:55:51.431Z,97468.56
2022-11-16T07:58:17.889Z,97463.59
2022-11-16T08:00:45.217Z,97463.19
2022-11-16T08:03:17.270Z,97471.63
2022-11-16T08:05:48.228Z,97463.41
2022-11-16T08:08:15.057Z,97473.72
2022-11-16T08:10:42.124Z,97460.31
2022-11-16T08:13:08.673Z,97472.88
2022-11-16T08:15:36.351Z,97474.94
2022-11-16T08:18:06.032Z,97477.84
2022-11-16T08:20:34.780Z,97477.00
2022-11-16T08:23:01.650Z,97474.94
2022-11-16T08:25:32.215Z,97471.84
2022-11-16T08:27:58.966Z,97476.16
2022-11-16T08:30:26.083Z,97481.34
2022-11-16T08:32:53.244Z,97483.19
2022-11-16T08:35:19.798Z,97478.25
2022-11-16T08:37:47.274Z,97485.47
2022-11-16T08:40:15.144Z,97476.38
2022-11-16T08:42:43.998Z,97477.44
2022-11-16T08:45:11.481Z,97481.78
2022-11-16T08:47:37.859Z,97475.38
2022-11-16T08:50:06.439Z,97481.94
2022-11-16T08:52:33.284Z,97484.44
2022-11-16T08:55:00.807Z,97479.72
2022-11-16T08:57:27.658Z,97475.38
2022-11-16T08:59:58.195Z,97478.03
2022-11-16T09:02:25.684Z,97478.03
2022-11-16T09:04:53.058Z,97479.28
2022-11-16T09:07:20.584Z,97472.69
2022-11-16T09:09:47.062Z,97477.22
2022-11-16T09:12:13.647Z,97482.78
2022-11-16T09:14:40.222Z,97483.41
2022-11-16T09:17:06.657Z,97477.41
2022-11-16T09:19:33.138Z,97480.31
2022-11-16T09:21:59.532Z,97477.66
2022-11-16T09:24:26.225Z,97484.44
2022-11-16T09:26:52.705Z,97478.22
2022-11-16T09:29:19.072Z,97478.78
2022-11-16T09:31:45.632Z,97478.44
2022-11-16T09:34:12.141Z,97481.78
2022-11-16T09:36:38.494Z,97479.78
2022-11-16T09:42:14.381Z,97474.53
2022-11-16T09:44:59.674Z,97478.50
2022-11-16T09:47:44.762Z,97477.72
2022-11-16T09:50:26.663Z,97487.97
2022-11-16T09:52:57.642Z,97488.31
2022-11-16T09:55:47.992Z,97495.78
2022-11-16T09:58:43.457Z,97502.03
2022-11-16T10:01:21.520Z,97487.75
2022-11-16T10:03:53.875Z,97491.84
2022-11-16T10:06:32.864Z,97490.78
2022-11-16T10:08:59.325Z,97493.00
2022-11-16T10:11:39.027Z,97493.78
2022-11-16T10:14:39.708Z,97489.66
2022-11-16T10:17:25.448Z,97488.59
2022-11-16T10:19:56.192Z,97489.44
2022-11-16T10:22:35.952Z,97480.50
2022-11-16T10:25:20.994Z,97488.59
2022-11-16T10:28:21.458Z,97486.16
2022-11-16T10:31:04.512Z,97482.56
2022-11-16T10:33:36.877Z,97478.88
2022-11-16T10:36:12.929Z,97475.16
2022-11-16T10:38:40.913Z,97475.69
2022-11-16T10:41:32.056Z,97473.16
2022-11-16T10:44:00.813Z,97464.69
2022-11-16T10:46:38.059Z,97460.53
2022-11-16T10:49:39.951Z,97452.25
2022-11-16T10:52:06.797Z,97451.00
2022-11-16T10:54:33.207Z,97451.47
2022-11-16T10:57:05.571Z,97452.75
2022-11-16T10:59:45.329Z,97447.00
2022-11-16T11:02:31.922Z,97438.69
2022-11-16T11:05:15.304Z,97448.41
2022-11-16T11:07:48.572Z,97440.50
2022-11-16T11:10:35.316Z,97431.34
2022-11-16T11:13:05.421Z,97440.22
2022-11-16T11:15:32.233Z,97439.06
2022-11-16T11:18:19.523Z,97447.47
2022-11-16T11:20:50.999Z,97436.69
2022-11-16T11:23:22.204Z,97428.81
2022-11-16T11:26:00.468Z,97428.53
2022-11-16T11:28:31.659Z,97422.19
2022-11-16T11:30:58.146Z,97421.06
2022-11-16T11:33:25.630Z,97414.91
2022-11-16T11:36:20.760Z,97413.06
2022-11-16T11:39:00.047Z,97414.56
2022-11-16T11:41:40.002Z,97409.59
2022-11-16T11:44:16.502Z,97408.50
2022-11-16T11:47:55.794Z,97421.59
2022-11-16T11:50:36.870Z,97410.38
2022-11-16T11:53:18.384Z,97405.06
2022-11-16T11:55:45.055Z,97397.56
2022-11-16T11:58:16.057Z,97400.13
2022-11-16T12:01:25.311Z,97404.13
2022-11-16T12:04:05.795Z,97399.47
2022-11-16T12:07:08.382Z,97390.28
2022-11-16T12:10:02.620Z,97391.72
2022-11-16T12:12:39.523Z,97381.41
2022-11-16T12:15:24.481Z,97384.69
2022-11-16T12:18:28.720Z,97374.16
2022-11-16T12:21:15.007Z,97380.94
2022-11-16T12:24:10.012Z,97379.44
2022-11-16T12:26:55.956Z,97364.91
2022-11-16T12:29:31.940Z,97356.75
2022-11-16T12:32:07.445Z,97354.16
2022-11-16T12:34:47.693Z,97347.13
2022-11-16T12:37:18.384Z,97356.84
2022-11-16T12:39:54.238Z,97347.56
2022-11-16T12:42:20.609Z,97357.91
2022-11-16T12:45:14.668Z,97350.56
2022-11-16T12:48:23.566Z,97341.31
2022-11-16T12:51:30.496Z,97330.75
2022-11-16T12:54:18.926Z,97335.69
2022-11-16T12:57:22.713Z,97318.81
2022-11-16T13:00:09.204Z,97304.22
2022-11-16T13:02:54.010Z,97305.66
2022-11-16T13:05:24.247Z,97301.69
2022-11-16T13:08:02.236Z,97297.34
2022-11-16T13:10:33.539Z,97302.06
2022-11-16T13:15:53.631Z,97304.31
2022-11-16T13:18:21.935Z,97298.75
2022-11-16T13:21:00.460Z,97294.28
2022-11-16T13:23:33.173Z,97296.72
2022-11-16T13:26:31.325Z,97289.47
2022-11-16T13:29:15.257Z,97295.88
2022-11-16T13:32:19.374Z,97296.03
2022-11-16T13:34:46.519Z,97295.34
2022-11-16T13:37:47.143Z,97290.16
2022-11-16T13:40:29.429Z,97278.94
2022-11-16T13:43:04.821Z,97267.31
2022-11-16T13:45:36.634Z,97279.34
2022-11-16T13:48:15.313Z,97273.97
2022-11-16T13:50:48.530Z,97283.03
2022-11-16T13:56:10.282Z,97281.00
2022-11-16T13:58:53.262Z,97271.88
2022-11-16T14:02:01.820Z,97270.34
2022-11-16T14:04:56.025Z,97278.19
2022-11-16T14:07:32.207Z,97272.66
2022-11-16T14:09:59.291Z,97271.72
2022-11-16T14:12:38.043Z,97269.28
2022-11-16T14:15:17.683Z,97265.06
2022-11-16T14:17:57.764Z,97259.47
2022-11-16T14:20:34.846Z,97256.34
2022-11-16T14:23:21.041Z,97247.81
2022-11-16T14:25:57.565Z,97244.03
2022-11-16T14:28:36.070Z,97240.91
2022-11-16T14:31:05.645Z,97241.75
2022-11-16T14:33:35.048Z,97244.72
2022-11-16T14:36:04.465Z,97246.34
2022-11-16T14:38:36.811Z,97235.03
2022-11-16T14:41:06.257Z,97241.31
2022-11-16T14:43:42.476Z,97240.00
2022-11-16T14:46:20.073Z,97234.94
2022-11-16T14:48:47.377Z,97235.19
2022-11-16T14:51:29.124Z,97241.97
2022-11-16T14:54:11.337Z,97229.44
2022-11-16T14:56:38.172Z,97230.59
2022-11-16T14:59:04.583Z,97219.56
2022-11-16T15:01:38.950Z,97226.34
2022-11-16T15:04:10.914Z,97225.63
2022-11-16T15:06:44.493Z,97213.97
2022-11-16T15:09:19.676Z,97216.50
2022-11-16T15:12:07.877Z,97217.03
2022-11-16T15:14:48.568Z,97229.94
2022-11-16T15:17:18.248Z,97224.13
2022-11-16T15:19:56.557Z,97220.13
2022-11-16T15:22:29.220Z,97226.91
2022-11-16T15:24:58.636Z,97218.88
2022-11-16T15:27:34.552Z,97212.03
2022-11-16T15:30:13.674Z,97216.78
2022-11-16T15:32:44.781Z,97210.81
2022-11-16T15:35:28.805Z,97202.47
2022-11-16T15:38:05.320Z,97198.97
2022-11-16T15:40:33.926Z,97197.97
2022-11-16T15:43:02.808Z,97194.25
2022-11-16T15:45:30.509Z,97186.91
2022-11-16T15:48:00.374Z,97184.09
2022-11-16T15:50:27.209Z,97180.44
2022-11-16T15:52:55.397Z,97176.50
2022-11-16T15:55:35.782Z,97184.97
2022-11-16T15:58:17.749Z,97180.91
2022-11-16T16:00:48.034Z,97174.56
2022-11-16T16:03:24.861Z,97181.59
2022-11-16T16:05:51.890Z,97175.25
2022-11-16T16:08:27.567Z,97172.19
2022-11-16T16:11:03.813Z,97170.31
2022-11-16T16:13:37.515Z,97169.09
2022-11-16T16:16:38.331Z,97172.03
2022-11-16T16:19:25.305Z,97173.66
2022-11-16T16:21:52.076Z,97164.63
2022-11-16T16:24:40.896Z,97167.91
2022-11-16T16:27:27.221Z,97173.72
2022-11-16T16:29:55.474Z,97181.78
2022-11-16T16:32:31.107Z,97181.19
2022-11-16T16:35:00.020Z,97172.53
2022-11-16T16:37:28.424Z,97174.19
2022-11-16T16:39:54.871Z,97162.22
2022-11-16T16:42:21.464Z,97166.34
2022-11-16T16:44:48.201Z,97162.03
2022-11-16T16:47:16.411Z,97154.44
2022-11-16T16:49:43.230Z,97159.56
2022-11-16T16:52:12.572Z,97161.00
2022-11-16T16:54:39.944Z,97159.16
2022-11-16T16:57:06.451Z,97161.22
2022-11-16T16:59:32.808Z,97169.25
2022-11-16T17:01:59.756Z,97171.09
2022-11-16T17:04:26.517Z,97174.41
2022-11-16T17:06:54.018Z,97174.78
2022-11-16T17:09:20.872Z,97176.03
2022-11-16T17:11:48.327Z,97182.66
2022-11-16T17:14:14.966Z,97171.50
2022-11-16T17:16:41.330Z,97168.44
2022-11-16T17:19:07.810Z,97162.88
2022-11-16T17:21:34.489Z,97162.09
2022-11-16T17:24:02.284Z,97161.47
2022-11-16T17:26:29.455Z,97150.34
2022-11-16T17:28:57.614Z,97149.94
2022-11-16T17:31:25.716Z,97143.16
2022-11-16T17:33:52.365Z,97138.78
2022-11-16T17:36:19.009Z,97138.38
2022-11-16T17:38:46.141Z,97139.59
2022-11-16T17:41:23.054Z,97132.22
2022-11-16T17:43:52.751Z,97122.72
2022-11-16T17:46:21.276Z,97116.16
2022-11-16T17:48:49.075Z,97103.81
2022-11-16T17:51:19.921Z,97105.03
2022-11-16T17:53:46.865Z,97102.16
2022-11-16T17:56:15.530Z,97092.50
2022-11-16T17:58:42.656Z,97089.81
2022-11-16T18:01:09.338Z,97067.19
2022-11-16T18:03:36.745Z,97075.63
2022-11-16T18:06:07.006Z,97056.94
2022-11-16T18:08:34.811Z,97054.25
2022-11-16T18:11:05.215Z,97051.81
2022-11-16T18:13:32.610Z,97044.59
2022-11-16T18:16:07.795Z,97036.19
2022-11-16T18:18:34.443Z,97030.63
2022-11-16T18:21:01.219Z,97032.28
2022-11-16T18:23:28.710Z,97023.63
2022-11-16T18:25:55.864Z,97029.38
2022-11-16T18:28:22.747Z,97006.34
2022-11-16T18:30:49.312Z,97004.31
2022-11-16T18:33:18.639Z,96994.03
2022-11-16T18:35:45.091Z,97001.63
2022-11-16T18:38:13.057Z,96988.88
2022-11-16T18:40:40.265Z,96976.94
2022-11-16T18:43:12.154Z,96985.38
2022-11-16T18:45:38.795Z,96988.25
2022-11-16T18:48:05.348Z,96997.69
2022-11-16T18:50:32.072Z,97005.91
2022-11-16T18:52:59.079Z,97003.63
2022-11-16T18:55:26.016Z,97002.34
2022-11-16T18:57:52.478Z,97001.91
2022-11-16T19:00:20.258Z,97005.84
2022-11-16T19:02:46.667Z,97003.56
2022-11-16T19:05:13.238Z,97018.16
2022-11-16T19:07:39.686Z,97025.13
2022-11-16T19:10:08.285Z,97034.34
2022-11-16T19:12:34.827Z,97028.78
2022-11-16T19:15:01.973Z,97029.16
2022-11-16T19:17:28.856Z,97019.69
2022-11-16T19:19:55.316Z,97016.84
2022-11-16T19:22:22.030Z,96994.47
2022-11-16T19:24:48.561Z,96983.53
2022-11-16T19:27:16.549Z,96955.81
2022-11-16T19:29:43.078Z,96967.94
2022-11-16T19:32:11.445Z,96968.59
2022-11-16T19:34:38.592Z,96956.84
2022-11-16T19:37:05.145Z,96962.19
2022-11-16T19:39:31.650Z,96962.41
2022-11-16T19:41:58.215Z,96962.19
2022-11-16T19:44:24.625Z,96960.16
2022-11-16T19:46:53.082Z,96956.06
2022-11-16T19:49:21.639Z,96953.22
2022-11-16T19:51:49.273Z,96953.66
2022-11-16T19:54:15.939Z,96948.72
2022-11-16T19:56:42.862Z,96964.94
2022-11-16T19:59:10.157Z,96969.88
2022-11-16T20:01:37.266Z,96969.66
2022-11-16T20:04:04.540Z,96971.31
2022-11-16T20:06:34.678Z,96974.78
2022-11-16T20:09:08.653Z,96970.06
2022-11-16T20:11:37.178Z,96966.78
2022-11-16T20:14:07.082Z,96969.66
2022-11-16T20:16:39.093Z,96974.59
2022-11-16T20:19:09.796Z,96967.22
2022-11-16T20:21:38.667Z,96967.22
2022-11-16T20:24:07.372Z,96968.25
2022-11-16T20:26:36.224Z,96968.88
2022-11-16T20:29:03.267Z,96969.25
2022-11-16T20:31:32.657Z,96964.34
2022-11-16T20:34:01.660Z,96964.56
2022-11-16T20:36:30.383Z,96970.91
2022-11-16T20:38:58.235Z,96959.22
2022-11-16T20:41:29.327Z,96965.22
2022-11-16T20:43:58.013Z,96974.44
2022-11-16T20:46:30.659Z,96972.81
2022-11-16T20:49:00.267Z,96979.56
2022-11-16T20:51:27.903Z,96972.59
2022-11-16T20:53:54.709Z,96973.00
2022-11-16T20:56:22.030Z,96976.91
2022-11-16T20:58:49.252Z,96983.28
2022-11-16T21:01:28.422Z,96983.31
2022-11-16T21:03:56.197Z,96988.84
2022-11-16T21:06:23.207Z,96987.84
2022-11-16T21:08:49.655Z,96990.91
2022-11-16T21:11:21.689Z,96983.31
2022-11-16T21:14:07.392Z,96978.38
2022-11-16T21:16:34.629Z,96965.44
2022-11-16T21:19:01.595Z,96962.75
2022-11-16T21:21:28.467Z,96948.16
2022-11-16T21:23:55.310Z,96950.47
2022-11-16T21:26:29.891Z,96954.78
2022-11-16T21:28:57.334Z,96958.88
2022-11-16T21:31:29.808Z,96964.00
2022-11-16T21:33:57.138Z,96958.66
2022-11-16T21:36:25.983Z,96953.31
2022-11-16T21:38:53.350Z,96957.63
2022-11-16T21:41:21.797Z,96956.59
2022-11-16T21:43:48.296Z,96942.41
2022-11-16T21:46:20.118Z,96934.44
2022-11-16T21:48:48.032Z,96925.41
2022-11-16T21:51:17.391Z,96924.16
2022-11-16T21:53:44.339Z,96923.53
2022-11-16T21:56:16.763Z,96918.63
2022-11-16T21:58:43.645Z,96909.19
2022-11-16T22:01:11.715Z,96897.88
2022-11-16T22:03:38.941Z,96892.13
2022-11-16T22:06:25.898Z,96891.72
2022-11-16T22:08:52.691Z,96886.78
2022-11-16T22:11:21.802Z,96891.91
2022-11-16T22:13:49.603Z,96893.56
2022-11-16T22:16:17.683Z,96896.66
2022-11-16T22:18:44.238Z,96897.47
2022-11-16T22:21:11.407Z,96895.41
2022-11-16T22:23:38.581Z,96892.94
2022-11-16T22:26:07.414Z,96888.41
2022-11-16T22:28:34.583Z,96889.25
2022-11-16T22:31:02.593Z,96891.94
2022-11-16T22:33:29.775Z,96883.72
2022-11-16T22:35:56.725Z,96870.34
2022-11-16T22:38:23.354Z,96858.22
2022-11-16T22:40:50.758Z,96862.97
2022-11-16T22:43:18.342Z,96859.06
2022-11-16T22:45:45.054Z,96851.88
2022-11-16T22:48:11.699Z,96850.81
2022-11-16T22:50:37.992Z,96844.88
2022-11-16T22:53:04.568Z,96844.28
2022-11-16T22:55:34.296Z,96832.97
2022-11-16T22:58:00.780Z,96836.88
2022-11-16T23:00:27.219Z,96837.47
2022-11-16T23:02:53.686Z,96834.59
2022-11-16T23:05:20.133Z,96834.63
2022-11-16T23:07:46.623Z,96833.97
2022-11-16T23:10:13.354Z,96835.03
2022-11-16T23:12:58.266Z,96816.94
2022-11-16T23:15:43.659Z,96830.91
2022-11-16T23:18:10.080Z,96824.34
2022-11-16T23:20:54.917Z,96813.47
2022-11-16T23:23:39.900Z,96814.09
2022-11-16T23:26:32.767Z,96809.75
2022-11-16T23:29:01.030Z,96803.78
2022-11-16T23:31:27.457Z,96798.88
2022-11-16T23:33:53.884Z,96796.19
2022-11-16T23:36:20.340Z,96798.44
2022-11-16T23:38:46.748Z,96796.41
2022-11-16T23:41:31.558Z,96800.50
2022-11-16T23:43:57.970Z,96778.75
2022-11-16T23:46:28.587Z,96773.81
2022-11-16T23:48:55.105Z,96775.06
2022-11-16T23:51:23.280Z,96778.75
2022-11-16T23:53:51.753Z,96775.03
2022-11-16T23:56:19.546Z,96763.50
2022-11-16T23:58:46.373Z,96761.06
